»·PEaware :: N4443X KLAX-KSNA

N4443X :: KLAX-KSNA

FLIGHT INFORMATION

Flight Status: Arrived
Operator: Privately registered:
United States
More flights under this callsign
Pilot: Doug H. (19585)
Aircraft: PIPER PA-28R-201 ARROW
(P28R)
More flights by this aircraft type
Origin: KLAX Los Angeles Intl
United States
Destination: KSNA John Wayne-Orange Co
United States
More flights between these airports :: More routes between these airports
Route: SLI8 SLI
File this flight plan on PilotEdge
Remarks: I6 Rating
Altitude:
(Current/Filed)
4,000ft
Speed:
(Current/Filed)
130kts
Departed: 10-Feb-20 07:54 PM
Arrived: 10-Feb-20 08:32 PM
Distance/Time
Traveled:
31nm/0:38
Distance/Time
To Go:
Arrived

Flight Plot

Page will automatically refresh every two minutes.

Flight plan parsing failed; only flown route is shown


Map Options




Map Legend


Flown Route
Filed Route
Departure Airport
Arrival Airport
Navaid (VOR, NDB)
Fix

Horizontal Profiles

Position Reports

Time Latitude Longitude Heading Altitude Ground
Speed
10-Feb-20 19:38 33.933638 -118.399303 0 128ft 0kts
10-Feb-20 19:40 33.933638 -118.399303 174 128ft 0kts
10-Feb-20 19:40 33.933638 -118.399303 174 128ft 0kts
10-Feb-20 19:41 33.933638 -118.399303 174 128ft 0kts
10-Feb-20 19:42 33.933638 -118.399303 174 128ft 0kts
10-Feb-20 19:43 33.933638 -118.399303 174 128ft 0kts
10-Feb-20 19:44 33.933638 -118.399303 174 128ft 0kts
10-Feb-20 19:45 33.933638 -118.399303 174 128ft 0kts
10-Feb-20 19:46 33.933638 -118.399303 174 128ft 0kts
10-Feb-20 19:47 33.933984 -118.398659 79 128ft 10kts
10-Feb-20 19:48 33.934985 -118.393955 83 128ft 18kts
10-Feb-20 19:49 33.935668 -118.387316 83 128ft 20kts
10-Feb-20 19:50 33.936379 -118.382851 11 128ft 0kts
10-Feb-20 19:51 33.936426 -118.382840 10 128ft 0kts
10-Feb-20 19:52 33.936435 -118.382838 11 128ft 1kts
10-Feb-20 19:53 33.935679 -118.397757 264 379ft 89kts
10-Feb-20 19:54 33.932562 -118.427383 263 1248ft 89kts
10-Feb-20 19:55 33.916919 -118.444041 170 1983ft 95kts
10-Feb-20 19:56 33.891733 -118.439381 169 2758ft 102kts
10-Feb-20 19:57 33.863082 -118.434169 170 3572ft 107kts
10-Feb-20 19:58 33.831491 -118.429010 170 4007ft 135kts
10-Feb-20 19:59 33.800250 -118.413187 136 3982ft 142kts
10-Feb-20 20:00 33.771925 -118.385710 137 3982ft 142kts
10-Feb-20 20:01 33.741088 -118.356200 137 3983ft 142kts
10-Feb-20 20:02 33.736664 -118.320258 67 3982ft 127kts
10-Feb-20 20:03 33.742469 -118.293073 72 3982ft 128kts
10-Feb-20 20:04 33.749810 -118.250900 73 3982ft 128kts
10-Feb-20 20:05 33.757010 -118.208718 73 3964ft 128kts
10-Feb-20 20:06 33.763971 -118.168151 73 3963ft 121kts
10-Feb-20 20:07 33.770769 -118.128218 72 3963ft 121kts
10-Feb-20 20:08 33.777585 -118.088264 72 3963ft 122kts
10-Feb-20 20:09 33.787237 -118.049260 59 3962ft 121kts
10-Feb-20 20:10 33.801411 -118.012144 56 3961ft 122kts
10-Feb-20 20:11 33.816701 -117.974737 58 3961ft 126kts
10-Feb-20 20:12 33.831649 -117.936047 58 3960ft 128kts
10-Feb-20 20:13 33.847056 -117.896714 58 3959ft 131kts
10-Feb-20 20:14 33.863117 -117.856668 58 3959ft 133kts
10-Feb-20 20:15 33.878925 -117.818266 68 3957ft 118kts
10-Feb-20 20:16 33.892578 -117.783546 68 3960ft 113kts
10-Feb-20 20:17 33.906045 -117.749378 68 3962ft 111kts
10-Feb-20 20:18 33.919350 -117.715849 62 3650ft 114kts
10-Feb-20 20:19 33.946776 -117.696696 32 3483ft 114kts
10-Feb-20 20:20 33.976181 -117.685722 333 3480ft 128kts
10-Feb-20 20:21 33.964519 -117.715953 171 3483ft 129kts
10-Feb-20 20:22 33.929197 -117.713363 169 3481ft 126kts
10-Feb-20 20:23 33.895693 -117.728614 203 3479ft 134kts
10-Feb-20 20:24 33.863374 -117.749576 202 3371ft 132kts
10-Feb-20 20:25 33.830545 -117.770522 204 3130ft 136kts
10-Feb-20 20:26 33.797034 -117.791679 206 2723ft 133kts
10-Feb-20 20:27 33.762158 -117.813883 208 1940ft 147kts
10-Feb-20 20:28 33.730742 -117.833855 208 1164ft 117kts
10-Feb-20 20:29 33.706295 -117.849396 207 647ft 85kts
10-Feb-20 20:30 33.686918 -117.861721 207 187ft 72kts
10-Feb-20 20:31 33.678095 -117.868345 298 59ft 0kts
10-Feb-20 20:32 33.675726 -117.870394 256 59ft 16kts

Navigation Log

Ident Type
Flight plan parsing failed, navigation log unavailable